Time;durP1;ratioP1;P1;durP2;ratioP2;P2;SDS_P1;SDS_P2;PMS_P1;PMS_P2;Temp;Humidity;BMP_temperature;BMP_pressure;BME280_temperature;BME280_humidity;BME280_pressure;Samples;Min_cycle;Max_cycle;Signal;HPM_P1;HPM_P2
2022/01/10 00:02:14;;;;;;;16.10;9.53;;;-0.30;99.90;;;;;;5101006;28;20038;-67
2022/01/10 00:04:40;;;;;;;19.97;10.23;;;;;;;;;;5105771;28;20042;-67
2022/01/10 00:07:05;;;;;;;19.27;10.40;;;-0.40;99.90;;;;;;5089793;28;20020;-67
2022/01/10 00:09:31;;;;;;;19.93;9.37;;;;;;;;;;5106709;28;20351;-66
2022/01/10 00:11:57;;;;;;;16.53;9.77;;;-0.20;99.90;;;;;;5110931;28;20449;-67
2022/01/10 00:14:23;;;;;;;24.40;10.57;;;;;;;;;;5110085;28;20390;-67
2022/01/10 00:16:48;;;;;;;14.57;9.57;;;-0.60;99.90;;;;;;5111031;28;20042;-67
2022/01/10 00:19:14;;;;;;;18.07;9.33;;;;;;;;;;5096294;28;20210;-66
2022/01/10 00:21:40;;;;;;;19.43;11.50;;;-0.50;99.90;;;;;;5105521;28;20047;-66
2022/01/10 00:24:05;;;;;;;24.03;9.50;;;-0.30;99.90;;;;;;5102488;28;20042;-67
2022/01/10 00:26:31;;;;;;;24.60;12.90;;;0.40;99.90;;;;;;5094381;28;20036;-67
2022/01/10 00:28:56;;;;;;;18.60;9.70;;;-0.30;99.90;;;;;;5097762;28;20372;-67
2022/01/10 00:31:22;;;;;;;20.47;11.10;;;;;;;;;;5101385;28;20365;-67
2022/01/10 00:33:48;;;;;;;17.03;8.63;;;;;;;;;;5090641;28;20722;-67
2022/01/10 00:36:14;;;;;;;12.87;8.53;;;;;;;;;;5094789;28;20084;-67
2022/01/10 00:38:40;;;;;;;21.33;10.87;;;-0.50;99.90;;;;;;5097273;28;20058;-67
2022/01/10 00:41:06;;;;;;;19.77;11.00;;;;;;;;;;5108661;28;20230;-66
2022/01/10 00:43:34;;;;;;;23.80;10.70;;;;;;;;;;5109383;28;20024;-67
2022/01/10 00:46:02;;;;;;;20.30;10.43;;;-0.50;99.90;;;;;;5110782;28;20023;-67
2022/01/10 00:48:28;;;;;;;18.03;10.50;;;;;;;;;;5109629;28;20031;-67
2022/01/10 00:50:54;;;;;;;19.47;10.63;;;;;;;;;;5110156;28;20028;-67
2022/01/10 00:53:20;;;;;;;16.80;10.30;;;;;;;;;;5110064;28;20027;-67
2022/01/10 00:55:46;;;;;;;17.57;10.80;;;;;;;;;;5107877;28;20034;-67
2022/01/10 00:58:12;;;;;;;16.97;9.13;;;-0.50;99.90;;;;;;5110025;28;20019;-67
2022/01/10 01:00:37;;;;;;;27.70;10.53;;;-0.60;99.90;;;;;;5108958;28;20345;-67
2022/01/10 01:03:03;;;;;;;22.53;11.17;;;;;;;;;;5110225;28;20034;-67
2022/01/10 01:05:32;;;;;;;21.57;10.57;;;;;;;;;;5108853;28;20080;-67
2022/01/10 01:08:01;;;;;;;17.60;11.03;;;;;;;;;;5110200;28;20411;-66
2022/01/10 01:13:28;;;;;;;17.40;12.67;;;-0.40;99.90;;;;;;5110321;28;20027;-66
2022/01/10 01:19:03;;;;;;;20.00;11.47;;;-1.00;99.90;;;;;;5109112;28;20031;-67
2022/01/10 01:24:06;;;;;;;20.77;13.80;;;-0.60;99.90;;;;;;5109892;28;20027;-66
2022/01/10 01:26:44;;;;;;;16.80;12.37;;;-0.90;99.90;;;;;;5095199;28;20034;-67
2022/01/10 01:29:15;;;;;;;14.80;11.70;;;-0.60;99.90;;;;;;5109508;28;20114;-67
2022/01/10 01:31:41;;;;;;;22.73;11.77;;;;;;;;;;5106650;28;20027;-67
2022/01/10 01:34:07;;;;;;;20.20;12.87;;;-0.60;99.90;;;;;;5109593;28;20544;-67
2022/01/10 01:36:34;;;;;;;21.13;12.73;;;;;;;;;;5108370;28;20039;-66
2022/01/10 01:39:05;;;;;;;27.30;13.87;;;-0.70;99.90;;;;;;5108701;28;20050;-67
2022/01/10 01:43:58;;;;;;;23.13;13.13;;;-0.70;99.90;;;;;;5109552;28;20127;-67
2022/01/10 01:46:25;;;;;;;21.50;13.13;;;-0.90;99.90;;;;;;5108593;28;20034;-67
2022/01/10 01:48:53;;;;;;;22.00;14.20;;;-0.80;99.90;;;;;;5107640;28;20031;-67
2022/01/10 01:51:19;;;;;;;24.13;14.67;;;-0.80;99.90;;;;;;5109354;28;20098;-67
2022/01/10 01:53:46;;;;;;;26.00;13.97;;;-0.80;99.90;;;;;;5108131;28;20090;-67
2022/01/10 01:56:13;;;;;;;21.70;12.30;;;-0.80;99.90;;;;;;5108938;28;20050;-66
2022/01/10 01:58:41;;;;;;;21.67;13.47;;;-0.90;99.90;;;;;;5108017;28;20020;-67
2022/01/10 02:01:07;;;;;;;20.83;14.10;;;;;;;;;;5108903;28;20032;-67
2022/01/10 02:03:33;;;;;;;25.07;13.70;;;-0.80;99.90;;;;;;5107765;28;20441;-67
2022/01/10 02:06:00;;;;;;;23.60;14.00;;;-0.70;99.90;;;;;;5109449;28;20103;-66
2022/01/10 02:08:26;;;;;;;29.73;15.47;;;-0.90;99.90;;;;;;5106102;28;20023;-67
2022/01/10 02:10:52;;;;;;;26.40;15.80;;;-0.90;99.90;;;;;;5108354;28;20043;-67
2022/01/10 02:13:18;;;;;;;28.50;17.37;;;-0.90;99.90;;;;;;5107474;28;20028;-66
2022/01/10 02:15:50;;;;;;;24.17;16.53;;;-0.80;99.90;;;;;;5106856;28;20035;-67
2022/01/10 02:18:17;;;;;;;25.47;15.50;;;-0.90;99.90;;;;;;5108822;28;20028;-66
2022/01/10 02:20:43;;;;;;;29.00;16.47;;;-1.00;99.90;;;;;;5107659;28;20088;-67
2022/01/10 02:23:09;;;;;;;25.27;12.90;;;-0.90;99.90;;;;;;5108422;28;20445;-67
2022/01/10 02:25:35;;;;;;;26.13;16.47;;;-0.70;99.90;;;;;;5107421;28;20039;-67
2022/01/10 02:28:00;;;;;;;27.77;16.43;;;-0.80;99.90;;;;;;5108432;28;20381;-67
2022/01/10 02:30:26;;;;;;;29.97;18.20;;;-0.80;99.90;;;;;;5107824;28;20038;-66
2022/01/10 02:32:56;;;;;;;32.30;19.80;;;-0.70;99.90;;;;;;5108018;28;20384;-67
2022/01/10 02:35:27;;;;;;;25.30;16.77;;;-0.80;99.90;;;;;;5108547;28;20073;-66
2022/01/10 02:37:54;;;;;;;23.90;16.60;;;-0.70;99.90;;;;;;5107271;28;20094;-67
2022/01/10 02:40:22;;;;;;;23.20;16.07;;;;;;;;;;5108000;28;20039;-66
2022/01/10 02:42:49;;;;;;;20.27;14.50;;;-0.90;99.90;;;;;;5108020;28;20022;-66
2022/01/10 02:45:15;;;;;;;33.97;17.73;;;-0.80;99.90;;;;;;5108310;28;20028;-67
2022/01/10 02:47:41;;;;;;;31.33;17.40;;;;;;;;;;5107282;28;20089;-66
2022/01/10 02:50:07;;;;;;;25.63;16.47;;;-0.70;99.90;;;;;;5108381;28;20118;-66
2022/01/10 02:52:37;;;;;;;19.87;13.87;;;-0.80;99.90;;;;;;5105085;28;20028;-66
2022/01/10 02:55:05;;;;;;;25.57;15.73;;;-0.80;99.90;;;;;;5108198;28;20020;-66
2022/01/10 02:57:32;;;;;;;17.97;12.40;;;-0.90;99.90;;;;;;5107250;28;20024;-67
2022/01/10 03:00:00;;;;;;;20.83;14.67;;;-1.00;99.90;;;;;;5108146;28;20047;-67
2022/01/10 03:02:30;;;;;;;23.10;15.70;;;;;;;;;;5107396;28;20075;-67
2022/01/10 03:04:56;;;;;;;20.13;14.53;;;-0.90;99.90;;;;;;5108039;28;20035;-67
2022/01/10 03:07:23;;;;;;;33.37;17.90;;;;;;;;;;5107527;28;20444;-66
2022/01/10 03:09:50;;;;;;;25.83;15.17;;;-0.80;99.90;;;;;;5107399;28;20027;-67
2022/01/10 03:12:16;;;;;;;25.57;16.40;;;-0.90;99.90;;;;;;5108165;28;20028;-66
2022/01/10 03:14:42;;;;;;;19.90;15.43;;;-0.90;99.90;;;;;;5107013;28;20060;-66
2022/01/10 03:17:10;;;;;;;20.60;13.93;;;;;;;;;;5108267;28;20028;-67
2022/01/10 03:19:36;;;;;;;22.70;14.57;;;-1.00;99.90;;;;;;5106829;28;20036;-66
2022/01/10 03:22:02;;;;;;;22.70;14.60;;;;;;;;;;5108379;28;20031;-67
2022/01/10 03:24:28;;;;;;;26.03;15.90;;;-1.00;99.90;;;;;;5107472;28;20034;-67
2022/01/10 03:26:53;;;;;;;23.87;13.80;;;-0.90;99.90;;;;;;5108048;28;20031;-66
2022/01/10 03:29:19;;;;;;;20.60;13.17;;;-1.10;99.90;;;;;;5111723;28;20104;-66
2022/01/10 03:31:45;;;;;;;20.93;13.63;;;-1.00;99.90;;;;;;5111549;28;20077;-67
2022/01/10 03:34:13;;;;;;;19.07;14.10;;;-1.20;99.90;;;;;;5111495;28;20023;-66
2022/01/10 03:36:39;;;;;;;23.13;14.43;;;-1.10;99.90;;;;;;5111026;28;20181;-66
2022/01/10 03:39:05;;;;;;;16.40;12.80;;;-0.90;99.90;;;;;;5110479;28;20042;-66
2022/01/10 03:41:30;;;;;;;24.27;17.67;;;;;;;;;;5110566;28;20027;-67
2022/01/10 03:43:56;;;;;;;23.07;15.60;;;;;;;;;;5109735;28;20035;-66
2022/01/10 03:46:22;;;;;;;28.57;17.67;;;;;;;;;;5109632;28;20125;-66
2022/01/10 03:48:48;;;;;;;23.53;15.73;;;;;;;;;;5108715;28;20148;-67
2022/01/10 03:51:14;;;;;;;32.43;21.50;;;;;;;;;;5109869;28;20051;-67
2022/01/10 03:53:40;;;;;;;32.70;18.60;;;-0.70;99.90;;;;;;5107379;28;20052;-66
2022/01/10 03:56:06;;;;;;;22.17;17.10;;;;;;;;;;5109668;28;20031;-66
2022/01/10 03:58:32;;;;;;;32.10;18.17;;;-0.70;99.90;;;;;;5109650;28;20032;-66
2022/01/10 04:00:57;;;;;;;19.33;13.97;;;-0.60;99.90;;;;;;5111415;28;20028;-67
2022/01/10 04:03:24;;;;;;;20.43;14.00;;;;;;;;;;5110249;28;20365;-67
2022/01/10 04:05:49;;;;;;;28.27;19.13;;;-0.50;99.90;;;;;;5111319;28;20027;-67
2022/01/10 04:08:15;;;;;;;25.03;19.67;;;-0.20;99.90;;;;;;5110753;28;20031;-67
2022/01/10 04:10:41;;;;;;;30.13;18.80;;;0.20;99.90;;;;;;5110587;28;20102;-66
2022/01/10 04:13:07;;;;;;;25.40;17.40;;;;;;;;;;5111281;28;20038;-66
2022/01/10 04:15:33;;;;;;;26.57;17.20;;;;;;;;;;5110655;28;20203;-66
2022/01/10 04:18:01;;;;;;;33.40;19.90;;;;;;;;;;5110850;28;20027;-67
2022/01/10 04:20:27;;;;;;;28.07;19.63;;;-0.10;99.90;;;;;;5110555;28;20126;-67
2022/01/10 04:22:52;;;;;;;22.97;16.80;;;-0.10;99.90;;;;;;5110847;28;20587;-66
2022/01/10 04:25:18;;;;;;;31.40;20.00;;;-0.20;99.90;;;;;;5111457;28;20427;-66
2022/01/10 04:27:44;;;;;;;29.43;23.37;;;-0.10;99.90;;;;;;5110233;28;20419;-67
2022/01/10 04:30:10;;;;;;;24.93;18.70;;;0.00;99.90;;;;;;5111035;28;20023;-66
2022/01/10 04:32:37;;;;;;;31.90;22.23;;;-0.10;99.90;;;;;;5109479;28;20024;-66
2022/01/10 04:35:04;;;;;;;24.20;17.23;;;0.00;99.90;;;;;;5111330;28;20031;-67
2022/01/10 04:37:29;;;;;;;31.47;22.57;;;;;;;;;;5109819;28;20503;-66
2022/01/10 04:39:55;;;;;;;26.53;21.40;;;0.10;99.90;;;;;;5109305;28;20150;-67
2022/01/10 04:42:20;;;;;;;24.93;19.50;;;0.10;99.90;;;;;;5110549;28;20054;-66
2022/01/10 04:44:48;;;;;;;27.93;21.43;;;0.40;99.90;;;;;;5110109;28;20032;-66
2022/01/10 04:47:14;;;;;;;28.00;20.10;;;0.30;99.90;;;;;;5110509;28;20242;-67
2022/01/10 04:52:24;;;;;;;30.63;21.00;;;;;;;;;;5109756;28;20039;-67
2022/01/10 04:54:49;;;;;;;39.80;22.57;;;0.50;99.90;;;;;;5110209;28;20410;-67
2022/01/10 04:57:15;;;;;;;30.97;19.87;;;0.40;99.90;;;;;;5110262;28;20425;-66
2022/01/10 04:59:41;;;;;;;31.33;22.00;;;;;;;;;;5109468;28;20096;-66
2022/01/10 05:02:07;;;;;;;30.53;21.23;;;0.50;99.90;;;;;;5109657;28;20506;-65
2022/01/10 05:04:33;;;;;;;43.83;24.90;;;0.80;99.90;;;;;;5109479;28;20361;-66
2022/01/10 05:06:58;;;;;;;29.33;20.53;;;0.60;99.90;;;;;;5110619;28;20024;-66
2022/01/10 05:09:24;;;;;;;40.47;28.10;;;0.70;99.90;;;;;;5109308;28;20028;-66
2022/01/10 05:11:49;;;;;;;38.07;27.23;;;0.70;99.90;;;;;;5109605;28;20476;-66
2022/01/10 05:14:17;;;;;;;38.13;25.80;;;0.80;99.90;;;;;;5109897;27;20031;-66
2022/01/10 05:16:44;;;;;;;37.67;24.67;;;0.90;99.90;;;;;;5109070;28;20046;-65
2022/01/10 05:19:09;;;;;;;41.73;26.77;;;0.80;99.90;;;;;;5109807;28;20060;-66
2022/01/10 05:21:35;;;;;;;29.80;23.33;;;0.80;99.90;;;;;;5109608;28;20501;-65
2022/01/10 05:24:01;;;;;;;43.37;29.47;;;;;;;;;;5109652;28;20173;-65
2022/01/10 05:26:26;;;;;;;46.00;27.33;;;0.70;99.90;;;;;;5109419;28;20031;-66
2022/01/10 05:28:54;;;;;;;36.50;23.97;;;;;;;;;;5109192;28;20051;-66
2022/01/10 05:31:20;;;;;;;40.27;25.77;;;;;;;;;;5109205;28;20122;-66
2022/01/10 05:33:46;;;;;;;38.80;25.63;;;;;;;;;;5108945;28;20484;-66
2022/01/10 05:36:12;;;;;;;37.20;25.97;;;1.00;99.90;;;;;;5109414;28;20057;-66
2022/01/10 05:38:38;;;;;;;34.90;25.03;;;1.00;99.90;;;;;;5107088;28;20044;-66
2022/01/10 05:41:04;;;;;;;41.60;26.93;;;1.10;99.90;;;;;;5109666;28;20035;-66
2022/01/10 05:43:30;;;;;;;43.67;25.37;;;1.00;99.90;;;;;;5108851;28;20032;-66
2022/01/10 05:45:57;;;;;;;33.43;23.17;;;0.90;99.90;;;;;;5108988;28;20027;-66
2022/01/10 05:48:29;;;;;;;50.87;31.40;;;1.00;99.90;;;;;;5109121;28;20016;-66
2022/01/10 05:50:54;;;;;;;45.57;29.30;;;1.10;99.90;;;;;;5109261;28;20028;-66
2022/01/10 05:53:20;;;;;;;39.53;28.20;;;1.10;99.90;;;;;;5109028;28;20042;-66
2022/01/10 05:55:47;;;;;;;36.87;25.10;;;1.20;99.90;;;;;;5109133;28;20024;-66
2022/01/10 05:58:13;;;;;;;41.43;28.00;;;1.00;99.90;;;;;;5109214;28;20391;-67
2022/01/10 06:00:39;;;;;;;49.63;30.53;;;1.10;99.90;;;;;;5108315;28;20057;-67
2022/01/10 06:03:06;;;;;;;44.97;28.93;;;1.20;99.90;;;;;;5108985;28;20023;-67
2022/01/10 06:05:31;;;;;;;34.90;24.77;;;1.10;99.90;;;;;;5108730;28;20106;-67
2022/01/10 06:08:02;;;;;;;33.70;25.80;;;1.20;99.90;;;;;;5109212;28;20043;-67
2022/01/10 06:10:29;;;;;;;43.17;28.97;;;1.10;99.90;;;;;;5108653;28;20020;-67
2022/01/10 06:12:55;;;;;;;42.83;28.63;;;1.10;99.90;;;;;;5108688;28;20012;-67
2022/01/10 06:15:22;;;;;;;39.73;26.80;;;1.60;99.90;;;;;;5113356;27;20031;-66
2022/01/10 06:17:48;;;;;;;40.57;27.90;;;;;;;;;;5129331;27;20438;-66
2022/01/10 06:20:13;;;;;;;47.23;29.97;;;1.10;99.90;;;;;;5129317;27;20119;-67
2022/01/10 06:22:40;;;;;;;34.57;23.27;;;;;;;;;;5128673;27;20471;-67
2022/01/10 06:25:08;;;;;;;51.67;32.50;;;1.30;99.90;;;;;;5129013;27;20031;-66
2022/01/10 06:27:33;;;;;;;43.30;28.63;;;1.10;99.90;;;;;;5110858;27;20049;-67
2022/01/10 06:29:59;;;;;;;44.07;29.00;;;1.00;99.90;;;;;;5108108;28;20035;-67
2022/01/10 06:32:25;;;;;;;44.20;27.40;;;1.40;99.90;;;;;;5108316;28;20031;-66
2022/01/10 06:34:52;;;;;;;35.97;25.47;;;;;;;;;;5108639;28;20357;-66
2022/01/10 06:37:19;;;;;;;53.77;33.47;;;1.20;99.90;;;;;;5108620;28;20051;-66
2022/01/10 06:39:45;;;;;;;40.33;29.33;;;1.40;99.90;;;;;;5107981;28;20519;-66
2022/01/10 06:42:11;;;;;;;42.97;28.60;;;1.10;99.90;;;;;;5108173;28;20073;-67
2022/01/10 06:44:37;;;;;;;44.53;31.53;;;;;;;;;;5107561;28;20027;-67
2022/01/10 06:47:03;;;;;;;42.80;26.60;;;1.20;99.90;;;;;;5108866;28;20027;-67
2022/01/10 06:49:29;;;;;;;45.57;30.00;;;1.20;99.90;;;;;;5108101;28;20036;-67
2022/01/10 06:51:54;;;;;;;45.90;31.20;;;1.40;99.90;;;;;;5108253;28;20023;-67
2022/01/10 06:54:20;;;;;;;42.33;29.00;;;;;;;;;;5108177;28;20028;-66
2022/01/10 06:56:46;;;;;;;46.13;29.93;;;1.20;99.90;;;;;;5108172;28;20024;-66
2022/01/10 06:59:12;;;;;;;49.73;30.27;;;;;;;;;;5107899;28;20062;-67
2022/01/10 07:01:38;;;;;;;37.10;28.53;;;;;;;;;;5087538;28;20024;-68
2022/01/10 07:04:03;;;;;;;40.77;28.27;;;1.40;99.90;;;;;;5089389;28;20391;-68
2022/01/10 07:06:29;;;;;;;47.80;27.83;;;;;;;;;;5091441;28;20145;-68
2022/01/10 07:08:55;;;;;;;46.07;30.77;;;;;;;;;;5087941;28;20455;-68
2022/01/10 07:11:21;;;;;;;36.13;24.60;;;1.30;99.90;;;;;;5087796;28;20031;-68
2022/01/10 07:13:47;;;;;;;30.00;21.40;;;;;;;;;;5088896;28;20043;-68
2022/01/10 07:16:13;;;;;;;48.33;28.63;;;1.20;99.90;;;;;;5087857;28;20024;-68
2022/01/10 07:18:39;;;;;;;49.83;32.40;;;;;;;;;;5089104;28;20133;-68
2022/01/10 07:21:05;;;;;;;47.77;30.43;;;1.10;99.90;;;;;;5107825;28;20031;-68
2022/01/10 07:23:30;;;;;;;38.67;27.00;;;1.00;99.90;;;;;;5107618;28;20031;-68
2022/01/10 07:25:56;;;;;;;45.10;30.53;;;1.10;99.90;;;;;;5108208;28;20027;-68
2022/01/10 07:28:22;;;;;;;43.23;30.33;;;;;;;;;;5107515;28;20024;-68
2022/01/10 07:30:49;;;;;;;46.77;27.93;;;1.00;99.90;;;;;;5108197;28;20023;-68
2022/01/10 07:33:15;;;;;;;44.47;29.77;;;;;;;;;;5108115;28;20458;-68
2022/01/10 07:35:40;;;;;;;41.93;28.27;;;0.90;99.90;;;;;;5107476;28;20687;-68
2022/01/10 07:38:06;;;;;;;35.73;26.27;;;;;;;;;;5107685;28;20051;-68
2022/01/10 07:40:32;;;;;;;46.17;26.90;;;;;;;;;;5106748;28;20039;-68
2022/01/10 07:42:58;;;;;;;41.93;27.33;;;;;;;;;;5107753;28;20026;-68
2022/01/10 07:45:24;;;;;;;46.13;28.77;;;0.80;99.90;;;;;;5106191;28;20066;-68
2022/01/10 07:47:49;;;;;;;52.67;29.27;;;0.80;99.90;;;;;;5108043;28;20118;-68
2022/01/10 07:50:15;;;;;;;46.87;28.00;;;0.80;99.90;;;;;;5107847;28;20082;-68
2022/01/10 07:52:40;;;;;;;39.37;26.83;;;0.70;99.90;;;;;;5107168;28;20028;-68
2022/01/10 07:55:06;;;;;;;41.37;28.20;;;0.70;99.90;;;;;;5107147;28;20059;-68
2022/01/10 07:57:32;;;;;;;42.10;29.30;;;0.90;99.90;;;;;;5107352;28;20485;-68
2022/01/10 07:59:58;;;;;;;46.20;28.93;;;;;;;;;;5104327;28;20039;-68
2022/01/10 08:02:24;;;;;;;39.87;28.97;;;0.70;99.90;;;;;;5116053;28;20038;-68
2022/01/10 08:04:50;;;;;;;43.97;29.07;;;0.80;99.90;;;;;;5107687;28;20365;-67
2022/01/10 08:07:16;;;;;;;54.03;32.40;;;0.70;99.90;;;;;;5107534;28;20027;-68
2022/01/10 08:09:41;;;;;;;45.40;30.93;;;;;;;;;;5106646;28;20073;-68
2022/01/10 08:12:07;;;;;;;46.90;30.20;;;0.70;99.90;;;;;;5104118;28;20024;-68
2022/01/10 08:14:34;;;;;;;49.50;30.80;;;0.70;99.90;;;;;;5087677;28;20032;-68
2022/01/10 08:17:00;;;;;;;43.23;28.23;;;0.90;99.90;;;;;;5090537;28;20020;-68
2022/01/10 08:19:31;;;;;;;36.77;24.63;;;1.00;99.90;;;;;;5095066;28;20039;-68
2022/01/10 08:21:57;;;;;;;51.17;30.97;;;1.00;99.90;;;;;;5091809;28;20557;-68
2022/01/10 08:24:24;;;;;;;49.97;31.20;;;1.20;99.90;;;;;;5089803;28;20012;-67
2022/01/10 08:26:50;;;;;;;51.27;30.20;;;0.90;99.90;;;;;;5090511;28;20384;-67
2022/01/10 08:29:16;;;;;;;43.37;28.50;;;;;;;;;;5090595;28;20055;-68
2022/01/10 08:31:42;;;;;;;44.53;29.87;;;;;;;;;;5089964;28;20109;-68
2022/01/10 08:34:08;;;;;;;47.87;32.67;;;1.00;99.90;;;;;;5095641;28;20164;-68
2022/01/10 08:36:34;;;;;;;42.87;28.60;;;1.10;99.90;;;;;;5110229;28;20122;-68
2022/01/10 08:39:00;;;;;;;50.63;34.27;;;1.10;99.90;;;;;;5110033;28;20047;-68
2022/01/10 08:41:26;;;;;;;49.77;35.17;;;1.10;99.90;;;;;;5110236;28;20031;-68
2022/01/10 08:43:52;;;;;;;43.50;31.20;;;;;;;;;;5110715;28;20080;-68
2022/01/10 08:46:18;;;;;;;49.30;35.57;;;1.40;99.90;;;;;;5114195;27;20031;-68
2022/01/10 08:48:44;;;;;;;55.03;34.97;;;;;;;;;;5111798;27;20084;-68
2022/01/10 08:51:10;;;;;;;57.63;34.67;;;;;;;;;;5110222;28;20031;-67
2022/01/10 08:53:36;;;;;;;52.53;33.80;;;1.30;99.90;;;;;;5108281;28;20327;-67
2022/01/10 08:56:02;;;;;;;49.87;34.03;;;1.50;99.90;;;;;;5110297;28;20102;-67
2022/01/10 08:58:32;;;;;;;46.90;32.30;;;;;;;;;;5103563;28;20107;-67
2022/01/10 09:01:00;;;;;;;48.87;32.37;;;1.50;99.90;;;;;;5116408;27;20037;-67
2022/01/10 09:03:25;;;;;;;59.93;34.43;;;1.60;99.90;;;;;;5113236;27;20368;-67
2022/01/10 09:05:54;;;;;;;56.87;37.47;;;;;;;;;;5094264;28;20028;-67
2022/01/10 09:08:20;;;;;;;48.30;33.73;;;;;;;;;;5089228;28;20020;-67
2022/01/10 09:10:46;;;;;;;51.57;35.67;;;1.60;99.90;;;;;;5088248;28;20516;-68
2022/01/10 09:13:12;;;;;;;41.00;31.93;;;;;;;;;;5105788;27;20031;-67
2022/01/10 09:15:37;;;;;;;51.07;35.47;;;1.60;99.90;;;;;;5116592;27;20032;-67
2022/01/10 09:18:03;;;;;;;55.97;36.03;;;1.90;99.90;;;;;;5109680;27;20032;-67
2022/01/10 09:20:29;;;;;;;54.57;34.10;;;1.80;99.90;;;;;;5109372;28;20118;-67
2022/01/10 09:22:55;;;;;;;45.40;33.73;;;;;;;;;;5106742;28;20157;-67
2022/01/10 09:25:20;;;;;;;47.40;34.10;;;2.00;99.90;;;;;;5088882;28;20487;-67
2022/01/10 09:27:46;;;;;;;58.77;37.10;;;1.90;99.90;;;;;;5089163;28;20038;-67
2022/01/10 09:30:12;;;;;;;48.30;34.07;;;2.00;99.90;;;;;;5089577;28;20107;-67
2022/01/10 09:32:38;;;;;;;56.03;38.20;;;2.00;99.90;;;;;;5109071;28;20492;-67
2022/01/10 09:35:04;;;;;;;51.83;38.03;;;2.20;99.90;;;;;;5123325;27;20031;-67
2022/01/10 09:37:30;;;;;;;53.10;36.03;;;2.10;99.90;;;;;;5099803;28;20050;-67
2022/01/10 09:39:56;;;;;;;49.33;34.47;;;;;;;;;;5107845;28;20039;-67
2022/01/10 09:42:22;;;;;;;50.37;36.77;;;2.00;99.90;;;;;;5088756;28;20024;-67
2022/01/10 09:44:48;;;;;;;44.67;33.97;;;;;;;;;;5089084;28;20028;-67
2022/01/10 09:47:14;;;;;;;53.57;36.20;;;2.30;99.90;;;;;;5096308;28;20023;-67
2022/01/10 09:49:40;;;;;;;53.20;36.70;;;2.20;99.90;;;;;;5108696;28;20410;-67
2022/01/10 09:52:06;;;;;;;52.07;34.17;;;2.10;99.90;;;;;;5108571;28;20106;-68
2022/01/10 09:54:31;;;;;;;44.37;34.83;;;2.30;99.90;;;;;;5108672;28;20046;-68
2022/01/10 09:56:57;;;;;;;53.27;37.50;;;2.30;99.90;;;;;;5112100;27;20061;-68
2022/01/10 09:59:23;;;;;;;57.63;35.47;;;;;;;;;;5112264;27;20072;-68
2022/01/10 10:01:50;;;;;;;50.60;35.37;;;2.30;99.90;;;;;;5108826;28;20023;-68
2022/01/10 10:04:15;;;;;;;51.60;34.27;;;2.40;99.90;;;;;;5108815;27;20085;-68
2022/01/10 10:06:41;;;;;;;60.40;36.53;;;2.30;99.90;;;;;;5116671;27;20518;-68
2022/01/10 10:09:09;;;;;;;52.43;36.77;;;2.00;99.90;;;;;;5113965;27;20062;-68
2022/01/10 10:11:40;;;;;;;52.93;36.03;;;2.40;99.90;;;;;;5108506;28;20027;-68
2022/01/10 10:14:08;;;;;;;62.63;37.50;;;2.30;99.90;;;;;;5108685;28;20161;-68
2022/01/10 10:16:36;;;;;;;56.47;34.80;;;2.60;99.90;;;;;;5107971;28;20464;-67
2022/01/10 10:19:03;;;;;;;49.57;33.00;;;2.40;99.90;;;;;;5101262;28;20032;-68
2022/01/10 10:21:31;;;;;;;49.67;36.00;;;2.40;99.90;;;;;;5087534;28;20039;-68
2022/01/10 10:23:57;;;;;;;49.20;32.37;;;;;;;;;;5088564;28;20035;-68
2022/01/10 10:26:25;;;;;;;50.40;33.57;;;2.40;99.90;;;;;;5090692;28;21479;-68
2022/01/10 10:28:53;;;;;;;47.13;35.13;;;2.30;99.90;;;;;;5108379;28;20015;-68
2022/01/10 10:31:29;;;;;;;46.47;30.37;;;2.40;99.90;;;;;;5108370;28;20474;-68
2022/01/10 10:33:56;;;;;;;51.00;33.63;;;2.40;99.90;;;;;;5108717;28;20015;-68
2022/01/10 10:36:22;;;;;;;44.57;34.87;;;;;;;;;;5113456;27;20039;-68
2022/01/10 10:38:48;;;;;;;56.00;35.13;;;;;;;;;;5118096;27;20149;-68
2022/01/10 10:41:14;;;;;;;48.97;33.73;;;2.50;99.90;;;;;;5113811;27;20110;-68
2022/01/10 10:43:42;;;;;;;57.07;34.07;;;2.40;99.90;;;;;;5106357;28;20596;-68
2022/01/10 10:46:17;;;;;;;55.20;33.13;;;2.40;99.90;;;;;;5108208;28;20102;-68
2022/01/10 10:48:48;;;;;;;54.40;33.77;;;2.30;99.90;;;;;;5108061;28;20043;-68
2022/01/10 10:51:14;;;;;;;52.53;35.23;;;2.30;99.90;;;;;;5110465;28;20487;-68
2022/01/10 10:53:40;;;;;;;45.50;32.60;;;2.50;99.90;;;;;;5114665;27;20036;-68
2022/01/10 10:56:06;;;;;;;51.63;35.27;;;2.40;99.90;;;;;;5108009;28;20028;-67
2022/01/10 10:58:32;;;;;;;50.30;34.10;;;;;;;;;;5099254;28;20031;-68
2022/01/10 11:01:00;;;;;;;58.80;35.77;;;2.40;99.90;;;;;;5087654;28;20032;-68
2022/01/10 11:03:26;;;;;;;61.00;42.40;;;2.50;99.90;;;;;;5094662;28;20019;-68
2022/01/10 11:05:57;;;;;;;58.27;35.67;;;2.50;99.90;;;;;;5107780;28;20364;-69
2022/01/10 11:08:26;;;;;;;54.97;40.23;;;2.30;99.90;;;;;;5108010;28;20426;-69
2022/01/10 11:10:52;;;;;;;59.30;36.57;;;2.60;99.90;;;;;;5108169;28;20023;-69
2022/01/10 11:13:21;;;;;;;51.57;34.90;;;2.60;99.90;;;;;;5107673;28;20092;-68
2022/01/10 11:15:47;;;;;;;61.63;41.90;;;;;;;;;;5108792;28;20032;-69
2022/01/10 11:18:13;;;;;;;48.47;36.40;;;;;;;;;;5098138;28;20400;-68
2022/01/10 11:20:45;;;;;;;53.37;39.90;;;2.90;99.90;;;;;;5107497;28;20036;-68
2022/01/10 11:23:11;;;;;;;55.77;36.23;;;3.10;99.90;;;;;;5107277;28;20492;-68
2022/01/10 11:25:39;;;;;;;54.07;36.90;;;3.10;99.90;;;;;;5107245;28;20031;-69
2022/01/10 11:28:23;;;;;;;54.60;37.77;;;3.10;99.90;;;;;;5107415;28;20035;-69
2022/01/10 11:30:56;;;;;;;50.60;33.65;;;3.30;99.90;;;;;;5108472;28;20027;-68
2022/01/10 11:33:26;;;;;;;53.03;36.03;;;3.30;99.90;;;;;;5103030;28;20048;-68
2022/01/10 11:35:57;;;;;;;56.77;40.47;;;3.40;99.90;;;;;;5107908;28;20016;-68
2022/01/10 11:38:38;;;;;;;54.67;34.80;;;3.40;99.90;;;;;;5111314;28;20115;-68
2022/01/10 11:41:09;;;;;;;47.80;35.60;;;3.60;99.90;;;;;;5111221;28;20419;-68
2022/01/10 11:43:36;;;;;;;60.43;36.27;;;3.70;99.90;;;;;;5107047;28;20028;-68
2022/01/10 11:46:11;;;;;;;49.13;33.57;;;3.70;99.90;;;;;;5107318;28;20023;-68
2022/01/10 11:48:55;;;;;;;44.27;33.30;;;3.70;99.90;;;;;;5107791;28;20031;-68
2022/01/10 11:51:35;;;;;;;55.97;33.97;;;3.80;99.90;;;;;;5091019;28;20031;-68
2022/01/10 11:54:41;;;;;;;50.60;35.30;;;3.70;99.90;;;;;;5108105;28;20511;-68
2022/01/10 11:57:12;;;;;;;51.27;33.00;;;3.30;99.90;;;;;;5109385;28;20063;-68
2022/01/10 11:59:45;;;;;;;49.90;33.60;;;3.60;99.90;;;;;;5110875;28;20163;-68
2022/01/10 12:02:16;;;;;;;46.40;29.97;;;3.60;99.90;;;;;;5110409;28;20509;-68
2022/01/10 12:04:50;;;;;;;50.53;33.67;;;3.70;99.90;;;;;;5110737;28;20103;-68
2022/01/10 12:07:17;;;;;;;;;;;3.70;99.90;;;;;;5110624;28;20108;-68
2022/01/10 12:09:46;;;;;;;46.20;33.40;;;;;;;;;;5109171;28;20048;-68
2022/01/10 12:12:15;;;;;;;51.37;32.30;;;3.70;99.90;;;;;;5107579;28;20024;-68
2022/01/10 12:14:42;;;;;;;59.10;36.63;;;3.90;99.90;;;;;;5110766;28;20060;-68
2022/01/10 12:17:08;;;;;;;43.00;31.80;;;;;;;;;;5110083;28;20023;-68
2022/01/10 12:19:34;;;;;;;45.40;32.83;;;3.60;99.90;;;;;;5109097;28;20147;-68
2022/01/10 12:22:01;;;;;;;51.80;34.50;;;3.60;99.90;;;;;;5097633;28;20039;-67
2022/01/10 12:24:26;;;;;;;38.90;28.97;;;3.80;99.90;;;;;;5090029;28;20023;-68
2022/01/10 12:26:52;;;;;;;44.77;31.07;;;3.60;99.90;;;;;;5106174;27;20024;-68
2022/01/10 12:29:17;;;;;;;45.73;32.87;;;3.40;99.90;;;;;;5118407;27;20023;-68
2022/01/10 12:31:45;;;;;;;41.50;30.93;;;3.70;99.90;;;;;;5120139;27;20084;-68
2022/01/10 12:34:12;;;;;;;42.40;30.73;;;3.60;99.90;;;;;;5112876;27;20031;-68
2022/01/10 12:36:39;;;;;;;43.50;31.93;;;3.70;99.90;;;;;;5110055;28;20035;-67
2022/01/10 12:39:05;;;;;;;46.80;34.13;;;;;;;;;;5110249;28;20039;-68
2022/01/10 12:41:32;;;;;;;48.40;32.00;;;;;;;;;;5110275;28;20042;-68
2022/01/10 12:43:59;;;;;;;51.33;36.47;;;3.70;99.90;;;;;;5110577;28;20380;-68
2022/01/10 12:46:27;;;;;;;57.90;37.13;;;4.00;99.90;;;;;;5109424;27;20059;-68
2022/01/10 12:48:53;;;;;;;43.77;33.93;;;3.60;99.90;;;;;;5110586;28;20023;-68
2022/01/10 12:51:20;;;;;;;50.23;35.90;;;3.80;99.90;;;;;;5110151;28;20034;-68
2022/01/10 12:53:48;;;;;;;50.33;35.47;;;3.80;99.90;;;;;;5107497;28;20082;-68
2022/01/10 12:56:22;;;;;;;43.50;32.27;;;4.20;99.90;;;;;;5110096;28;20114;-67
2022/01/10 12:58:49;;;;;;;48.57;35.00;;;3.90;99.90;;;;;;5110397;28;20540;-68
2022/01/10 13:01:15;;;;;;;45.43;31.90;;;3.70;99.90;;;;;;5094704;28;20749;-68
2022/01/10 13:03:51;;;;;;;48.97;34.77;;;3.70;99.90;;;;;;5089361;28;20412;-67
2022/01/10 13:06:17;;;;;;;34.03;29.63;;;;;;;;;;5089930;28;20064;-68
2022/01/10 13:08:43;;;;;;;43.07;32.97;;;;;;;;;;5088649;28;20390;-67
2022/01/10 13:11:14;;;;;;;44.53;33.80;;;3.80;99.90;;;;;;5101494;28;20480;-67
2022/01/10 13:13:44;;;;;;;41.27;32.13;;;4.00;99.90;;;;;;5109163;28;20092;-67